Summersville, WV (26651)

8:27 PM EST on February 10, 2016 (GMT -0500)
Summersville | | Change Station
CLOSE
Current Station
Personal Weather Station
Location: Summersville, WV
Elevation: 1932 ft
Nearby Weather Stations
Active Advisory: Winter Weather Advisory Active Notice: Local Storm Report

Elev 1932 ft 38.30 °N, 80.84 °W | Updated 7 minutes ago

Overcast
Overcast
13.8 °F
Feels Like 14 °F
N
2.7
Wind Variable Wind from WSW

Today
High -- | Low -- °F
--% Chance of Precip.
Yesterday
High -- | Low -- °F
Precip. -- in
Pressure 30.08 in
Visibility 4.0 miles
Clouds Few 1700 ft
Scattered Clouds 2300 ft
Overcast 4200 ft
Windchill 14 °F
Dew Point 10 °F
Humidity 83%
Rainfall 0.00 in
Snow Depth Not available.
7:20 AM 5:55 PM
Waxing Crescent, 8% visible
METAR KBKW 110051Z AUTO 29008KT 4SM -SN FEW017 SCT023 OVC042 M11/M14 A2991 RMK AO2 SLP184 P0000 T11061139
Pressure 30.08 in
Visibility 4.0 miles
Clouds Few 1700 ft
Scattered Clouds 2300 ft
Overcast 4200 ft
Windchill 14 °F
Dew Point 10 °F
Humidity 83%
Rainfall 0.00 in
Snow Depth Not available.
7:20 AM 5:55 PM
Waxing Crescent, 8% visible
METAR KBKW 110051Z AUTO 29008KT 4SM -SN FEW017 SCT023 OVC042 M11/M14 A2991 RMK AO2 SLP184 P0000 T11061139

10-Day Weather Forecast

Almanac

Astronomy

Feb. 10, 2016 Rise Set
Actual Time
Civil Twilight
Nautical Twilight
Astronomical Twilight
Moon
Length of Visible Light
Length of Day
Tomorrow will be .
, % of the Moon is Illuminated

Today's Extremes

State Highs State Lows

Community

WunderPhotos

Upload Photos

1,891,963 photos uploaded!

WunderBlog® & News

Nearby

Air Quality

  Air Quality AQ Index Pollutant
Not available.

Snow Depth

Station Depth Elevation

Earthquake Activity

City Distance Mag. Time & Date
Minimum magnitude displayed is 2.5.

Coastal Water Temperatures

Place Temperature

Stations

Nearby Weather Stations

Station Location Temp. Windchill Dew Point Humidity Wind Precip. Elev Updated Type
                   

Watches & Warnings

Winter Weather Advisory
Issued: 6:12 PM EST Feb. 10, 2016 – National Weather Service

... Winter Weather Advisory remains in effect until 6 am EST
Thursday...

* hazard types... snow showers of varying intensity.

* Total snow accumulations from Monday night through tonight...
6 to 12 inches.

* Temperatures... 9 to 20 above.

* Wind chill readings... as low as 10 below.

* Impacts... travel may be difficult at times. Visibilities will
be limited at times.

Precautionary/preparedness actions...

A Winter Weather Advisory for snow means that periods of snow
will cause primarily travel difficulties. Be prepared for snow
covered roads and limited visibilities... and use caution while
driving.

With the colder weather... have your vehicle equipped with
emergency supplies.